Fermita — LACV6 — position and weather

sailwx.info

Track history (hours):
 
Tides and Currents Weather Stations Pressure Air Temp Water Temp Dewpoint Dewpoint Depression Visibility Wind Speed Wind Dir Waves Ship Positions

Fermita

Last reported at 2018-Feb-17 17:13 UTC. Time now 2018-Feb-17 19:28 UTC.
Position N 49°11' W 123°54'.

Length 209 m; draft 7 m.

Type: Cargo ship. MMSI: 257398000.

Date/timePositionNaut miles runAvg speedWind from/ knotsBaromVisibWave heightAir tempDewpointWater temp
2018-Feb-17 17:13N 49°11' W 123°54'0 0.0
2018-Feb-17 07:42N 49°11' W 123°54'0 0.1
2018-Feb-17 07:12N 49°11' W 123°54'0 0.2
2018-Feb-17 07:00N 49°11' W 123°54'0 0.0
2018-Feb-17 06:30N 49°11' W 123°54'0 0.2
2018-Feb-17 05:58N 49°11' W 123°54'6 9.3
2018-Feb-17 05:19N 49°14' W 123°46'413.7
2018-Feb-17 05:00N 49°16' W 123°40'714.2
2018-Feb-17 04:30N 49°18' W 123°30'714.1
2018-Feb-17 04:00N 49°19' W 123°19'713.2
2018-Feb-17 03:30N 49°19' W 123°09'3 6.2
2018-Feb-17 03:00N 49°17' W 123°05'0 0.1
2018-Feb-17 02:29N 49°17' W 123°05'0 0.1
2018-Feb-17 01:59N 49°17' W 123°05'0 0.0
2018-Feb-17 01:29N 49°17' W 123°05'0 0.0
2018-Feb-17 00:59N 49°17' W 123°05'0 0.1
2018-Feb-17 00:29N 49°17' W 123°05'0 0.1
2018-Feb-16 23:59N 49°17' W 123°05'0 0.1
2018-Feb-16 23:29N 49°17' W 123°05'0 0.0
2018-Feb-16 22:59N 49°17' W 123°05'0 0.0
2018-Feb-16 22:29N 49°17' W 123°05'0 0.1
2018-Feb-16 21:59N 49°17' W 123°05'0 0.0
2018-Feb-16 21:29N 49°17' W 123°05'0 0.1
2018-Feb-16 20:59N 49°17' W 123°05'0 0.1
2018-Feb-16 20:29N 49°17' W 123°05'0 0.1
2018-Feb-16 19:59N 49°17' W 123°05'0 0.0
2018-Feb-16 19:29N 49°17' W 123°05'0 0.0
2018-Feb-16 18:59N 49°17' W 123°05'0 0.0
2018-Feb-16 18:29N 49°17' W 123°05'0 0.0
2018-Feb-16 17:59N 49°17' W 123°05'0 0.0
2018-Feb-16 17:29N 49°17' W 123°05'0 0.1
2018-Feb-16 16:59N 49°17' W 123°05'0 0.0
2018-Feb-16 16:29N 49°17' W 123°05'0 0.1
2018-Feb-16 15:59N 49°17' W 123°05'0 0.1
2018-Feb-16 15:29N 49°17' W 123°05'0 0.1
2018-Feb-16 14:59N 49°17' W 123°05'0 0.0
2018-Feb-16 14:29N 49°17' W 123°05'0 0.0
2018-Feb-16 13:59N 49°17' W 123°05'0 0.1
2018-Feb-16 13:29N 49°17' W 123°05'0 0.0
2018-Feb-16 12:59N 49°17' W 123°05'0 0.1
2018-Feb-16 12:29N 49°17' W 123°05'0 0.1
2018-Feb-16 11:59N 49°17' W 123°05'0 0.1
2018-Feb-16 11:29N 49°17' W 123°05'0 0.0
2018-Feb-16 10:59N 49°17' W 123°05'0 0.1
2018-Feb-16 10:29N 49°17' W 123°05'0 0.1
2018-Feb-16 09:59N 49°17' W 123°05'0 0.1
2018-Feb-16 09:29N 49°17' W 123°05'0 0.1
2018-Feb-16 08:59N 49°17' W 123°05'0 0.0
2018-Feb-16 08:29N 49°17' W 123°05'0 0.0
2018-Feb-16 07:59N 49°17' W 123°05'0 0.0
2018-Feb-16 07:29N 49°17' W 123°05'0 0.0
2018-Feb-16 06:59N 49°17' W 123°05'0 0.0
2018-Feb-16 06:29N 49°17' W 123°05'0 0.1
2018-Feb-16 05:59N 49°17' W 123°05'0 0.1
2018-Feb-16 05:29N 49°17' W 123°05'0 0.0
2018-Feb-16 04:59N 49°17' W 123°05'0 0.0
2018-Feb-16 04:29N 49°17' W 123°05'0 0.0
2018-Feb-16 03:59N 49°17' W 123°05'0 0.0
2018-Feb-16 03:29N 49°17' W 123°05'1 1.1
2018-Feb-16 03:01N 49°18' W 123°06'3 6.7
2018-Feb-16 02:30N 49°19' W 123°10'4 8.3
2018-Feb-16 02:01N 49°19' W 123°17'4 7.2
2018-Feb-16 01:30N 49°19' W 123°22'510.2
2018-Feb-16 01:00N 49°19' W 123°15'1 2.4
2018-Feb-16 00:30N 49°19' W 123°13'2 3.7
2018-Feb-16 00:01N 49°19' W 123°10'3 6.9
2018-Feb-15 23:31N 49°18' W 123°05'0 0.6
2018-Feb-15 22:59N 49°17' W 123°05'0 0.1
2018-Feb-15 22:29N 49°17' W 123°05'0 0.0
2018-Feb-15 21:59N 49°17' W 123°05'0 0.1
2018-Feb-15 21:29N 49°17' W 123°05'0 0.1
2018-Feb-15 20:59N 49°17' W 123°05'0 0.1
2018-Feb-15 20:29N 49°17' W 123°05'0 0.0
2018-Feb-15 19:59N 49°17' W 123°05'0 0.0
2018-Feb-15 19:29N 49°17' W 123°05'0 0.0
2018-Feb-15 18:59N 49°17' W 123°05'0 0.0
2018-Feb-15 18:29N 49°17' W 123°05'0 0.1
2018-Feb-15 17:58N 49°17' W 123°05'0 0.1
2018-Feb-15 17:28N 49°17' W 123°05'0 0.0
2018-Feb-15 16:58N 49°17' W 123°05'0 0.0
2018-Feb-15 16:28N 49°17' W 123°05'0 0.1
2018-Feb-15 15:58N 49°17' W 123°05'0 0.0
2018-Feb-15 15:28N 49°17' W 123°05'0 0.1
2018-Feb-15 14:58N 49°17' W 123°05'0 0.0
2018-Feb-15 14:28N 49°17' W 123°05'0 0.1
2018-Feb-15 13:58N 49°17' W 123°05'0 0.0
2018-Feb-15 13:28N 49°17' W 123°05'0 0.0
2018-Feb-15 12:58N 49°17' W 123°05'0 0.1
2018-Feb-15 12:28N 49°17' W 123°05'0 0.0
2018-Feb-15 11:58N 49°17' W 123°05'0 0.0
2018-Feb-15 11:28N 49°17' W 123°05'0 0.0
2018-Feb-15 10:58N 49°17' W 123°05'0 0.0
2018-Feb-15 10:28N 49°17' W 123°05'0 0.0
2018-Feb-15 09:58N 49°17' W 123°05'0 0.0
2018-Feb-15 09:28N 49°17' W 123°05'0 0.0
2018-Feb-15 08:58N 49°17' W 123°05'0 0.0
2018-Feb-15 08:28N 49°17' W 123°05'0 0.1
2018-Feb-15 07:58N 49°17' W 123°05'0 0.1
2018-Feb-15 07:28N 49°17' W 123°05'0 0.0
2018-Feb-15 06:58N 49°17' W 123°05'0 0.0
2018-Feb-15 06:25N 49°17' W 123°05'0 0.1
2018-Feb-15 05:58N 49°17' W 123°05'0 0.1
2018-Feb-15 05:28N 49°17' W 123°05'0 0.1
2018-Feb-15 04:58N 49°17' W 123°05'0 0.1
2018-Feb-15 04:28N 49°17' W 123°05'0 0.0
2018-Feb-15 03:58N 49°17' W 123°05'0 0.0
2018-Feb-15 03:28N 49°17' W 123°05'0 0.0
2018-Feb-15 02:58N 49°17' W 123°05'0 0.0
2018-Feb-15 02:28N 49°17' W 123°05'0 0.0
2018-Feb-15 01:58N 49°17' W 123°05'0 0.1
2018-Feb-15 01:28N 49°17' W 123°05'0 0.1
2018-Feb-15 00:58N 49°17' W 123°05'0 0.0
2018-Feb-15 00:28N 49°17' W 123°05'0 0.0
2018-Feb-14 23:58N 49°17' W 123°05'0 0.0
2018-Feb-14 23:28N 49°17' W 123°05'0 0.0
2018-Feb-14 22:58N 49°17' W 123°05'0 0.1
2018-Feb-14 22:28N 49°17' W 123°05'0 0.0
2018-Feb-14 21:58N 49°17' W 123°05'0 0.1
2018-Feb-14 21:28N 49°17' W 123°05'0 0.0
2018-Feb-14 20:58N 49°17' W 123°05'0 0.0
2018-Feb-14 20:28N 49°17' W 123°05'0 0.0
2018-Feb-14 19:58N 49°17' W 123°05'0 0.0
2018-Feb-14 19:28N 49°17' W 123°05'0 0.0
2018-Feb-14 18:58N 49°17' W 123°05'0 0.1
2018-Feb-14 18:28N 49°17' W 123°05'0 0.0
2018-Feb-14 17:58N 49°17' W 123°05'0 0.0
2018-Feb-14 17:28N 49°17' W 123°05'0 0.0
2018-Feb-14 16:58N 49°17' W 123°05'0 0.0
2018-Feb-14 16:28N 49°17' W 123°05'0 0.0
2018-Feb-14 15:58N 49°17' W 123°05'0 0.1
2018-Feb-14 15:28N 49°17' W 123°05'0 0.0
2018-Feb-14 14:58N 49°17' W 123°05'0 0.0
2018-Feb-14 14:28N 49°17' W 123°05'0 0.0
2018-Feb-14 13:58N 49°17' W 123°05'0 0.1
2018-Feb-14 13:28N 49°17' W 123°05'0 0.1
2018-Feb-14 12:58N 49°17' W 123°05'0 0.0
2018-Feb-14 12:28N 49°17' W 123°05'0 0.1
2018-Feb-14 11:58N 49°17' W 123°05'0 0.1
2018-Feb-14 11:28N 49°17' W 123°05'0 0.0
2018-Feb-14 10:58N 49°17' W 123°05'0 0.0
2018-Feb-14 10:28N 49°17' W 123°05'0 0.1
2018-Feb-14 09:58N 49°17' W 123°05'0 0.0
2018-Feb-14 09:31N 49°17' W 123°05'0 0.1
2018-Feb-14 09:01N 49°17' W 123°05'0 0.0
2018-Feb-14 08:30N 49°17' W 123°05'0 0.0
2018-Feb-14 08:00N 49°17' W 123°05'0 0.0
2018-Feb-14 07:30N 49°17' W 123°05'0 0.1
2018-Feb-14 07:00N 49°17' W 123°05'0 0.1
2018-Feb-14 06:30N 49°17' W 123°05'0 0.0
2018-Feb-14 06:00N 49°17' W 123°05'0 0.1
2018-Feb-14 05:30N 49°17' W 123°05'0 0.1
2018-Feb-14 05:00N 49°17' W 123°05'0 0.0
2018-Feb-14 04:30N 49°17' W 123°05'0 0.1
2018-Feb-14 04:00N 49°17' W 123°05'0 0.0
2018-Feb-14 03:30N 49°17' W 123°05'0 0.1
2018-Feb-14 03:00N 49°17' W 123°05'0 0.0
2018-Feb-14 02:30N 49°17' W 123°05'0 0.0
2018-Feb-14 02:00N 49°17' W 123°05'0 0.1
2018-Feb-14 01:30N 49°17' W 123°05'0 0.1
2018-Feb-14 01:00N 49°17' W 123°05'0 0.1
2018-Feb-14 00:30N 49°17' W 123°05'0 0.1
2018-Feb-14 00:00N 49°17' W 123°05'0 0.1
2018-Feb-13 23:30N 49°17' W 123°05'0 0.1
2018-Feb-13 23:00N 49°17' W 123°05'0 0.1
2018-Feb-13 22:30N 49°17' W 123°05'0 0.0
2018-Feb-13 22:00N 49°17' W 123°05'0 0.0
2018-Feb-13 21:30N 49°17' W 123°05'0 0.1
2018-Feb-13 21:00N 49°17' W 123°05'0 0.0
2018-Feb-13 20:30N 49°17' W 123°05'0 0.0
2018-Feb-13 20:00N 49°17' W 123°05'0 0.1
2018-Feb-13 19:30N 49°17' W 123°05'0 0.1
2018-Feb-13 19:00N 49°17' W 123°05'0 0.1
2018-Feb-13 18:30N 49°17' W 123°05'0 0.0
2018-Feb-13 18:00N 49°17' W 123°05'0 0.1
2018-Feb-13 17:27N 49°17' W 123°05'0 0.0
2018-Feb-13 17:00N 49°17' W 123°05'0 0.1
2018-Feb-13 16:30N 49°17' W 123°05'0 0.0
2018-Feb-13 15:57N 49°17' W 123°05'0 0.0
2018-Feb-13 15:30N 49°17' W 123°05'0 0.1
2018-Feb-13 15:00N 49°17' W 123°05'0 0.0
2018-Feb-13 14:30N 49°17' W 123°05'0 0.1
2018-Feb-13 13:58N 49°17' W 123°05'0 0.0
2018-Feb-13 13:30N 49°17' W 123°05'0 0.1
2018-Feb-13 13:00N 49°17' W 123°05'0 0.0
2018-Feb-13 12:30N 49°17' W 123°05'0 0.0
2018-Feb-13 12:00N 49°17' W 123°05'0 0.1
2018-Feb-13 11:30N 49°17' W 123°05'0 0.1
2018-Feb-13 11:00N 49°17' W 123°05'0 0.0
2018-Feb-13 10:30N 49°17' W 123°05'0 0.0
2018-Feb-13 10:00N 49°17' W 123°05'0 0.1
2018-Feb-13 09:30N 49°17' W 123°05'0 0.1
2018-Feb-13 09:00N 49°17' W 123°05'0 0.1
2018-Feb-13 08:30N 49°17' W 123°05'0 0.1
2018-Feb-13 08:00N 49°17' W 123°05'0 0.0
2018-Feb-13 07:30N 49°17' W 123°05'0 0.0
2018-Feb-13 07:00N 49°17' W 123°05'0 0.0
2018-Feb-13 06:30N 49°17' W 123°05'0 0.1
2018-Feb-13 05:57N 49°17' W 123°05'0 0.0
2018-Feb-13 05:27N 49°17' W 123°05'0 0.1
2018-Feb-13 05:00N 49°17' W 123°05'0 0.0
2018-Feb-13 04:30N 49°17' W 123°05'0 0.0
2018-Feb-13 04:00N 49°17' W 123°05'0 0.1
2018-Feb-13 03:30N 49°17' W 123°05'0 0.1
2018-Feb-13 02:57N 49°17' W 123°05'0 0.0
2018-Feb-13 02:30N 49°17' W 123°05'0 0.0
2018-Feb-13 02:00N 49°17' W 123°05'0 0.0
2018-Feb-13 01:30N 49°17' W 123°05'0 0.1
2018-Feb-13 01:00N 49°17' W 123°05'0 0.0
2018-Feb-13 00:27N 49°17' W 123°05'0 0.1
2018-Feb-13 00:00N 49°17' W 123°05'0 0.1
2018-Feb-12 23:27N 49°17' W 123°05'0 0.1
2018-Feb-12 22:56N 49°17' W 123°05'0 0.0
2018-Feb-12 22:29N 49°17' W 123°05'0 0.0
2018-Feb-12 21:59N 49°17' W 123°05'0 0.0
2018-Feb-12 21:26N 49°17' W 123°05'0 0.1
2018-Feb-12 20:59N 49°17' W 123°05'0 0.1
2018-Feb-12 20:29N 49°17' W 123°05'0 0.0
2018-Feb-12 19:59N 49°17' W 123°05'0 0.0
2018-Feb-12 19:29N 49°17' W 123°05'0 0.1
2018-Feb-12 18:59N 49°17' W 123°05'0 0.0
2018-Feb-12 18:29N 49°17' W 123°05'0 0.0
2018-Feb-12 17:59N 49°17' W 123°05'0 0.0
2018-Feb-12 17:29N 49°17' W 123°05'0 0.1
2018-Feb-12 16:59N 49°17' W 123°05'0 0.0
2018-Feb-12 16:29N 49°17' W 123°05'0 0.0
2018-Feb-12 15:59N 49°17' W 123°05'0 0.1
2018-Feb-12 15:29N 49°17' W 123°05'0 0.1
2018-Feb-12 14:59N 49°17' W 123°05'0 0.0
2018-Feb-12 14:29N 49°17' W 123°05'0 0.1
2018-Feb-12 13:59N 49°17' W 123°05'0 0.1
2018-Feb-12 13:29N 49°17' W 123°05'0 0.0
2018-Feb-12 12:59N 49°17' W 123°05'0 0.0
2018-Feb-12 12:29N 49°17' W 123°05'0 0.0
2018-Feb-12 11:59N 49°17' W 123°05'0 0.0
2018-Feb-12 11:29N 49°17' W 123°05'0 0.0
2018-Feb-12 10:59N 49°17' W 123°05'0 0.0
2018-Feb-12 10:29N 49°17' W 123°05'0 0.0
2018-Feb-12 09:59N 49°17' W 123°05'0 0.0
2018-Feb-12 09:29N 49°17' W 123°05'0 0.1
2018-Feb-12 08:59N 49°17' W 123°05'0 0.0
2018-Feb-12 08:29N 49°17' W 123°05'0 0.1
2018-Feb-12 07:59N 49°17' W 123°05'0 0.0
2018-Feb-12 07:29N 49°17' W 123°05'0 0.1
2018-Feb-12 06:59N 49°17' W 123°05'0 0.1
2018-Feb-12 06:29N 49°17' W 123°05'0 0.0
2018-Feb-12 05:59N 49°17' W 123°05'0 0.1
2018-Feb-12 05:29N 49°17' W 123°05'0 0.1
2018-Feb-12 04:59N 49°17' W 123°05'0 0.0
2018-Feb-12 04:29N 49°17' W 123°05'0 0.0
2018-Feb-12 03:59N 49°17' W 123°05'0 0.1
2018-Feb-12 03:29N 49°17' W 123°05'0 0.1
2018-Feb-12 02:59N 49°17' W 123°05'0 0.0
2018-Feb-12 02:29N 49°17' W 123°05'0 0.1
2018-Feb-12 01:59N 49°17' W 123°05'0 0.1
2018-Feb-12 01:29N 49°17' W 123°05'0 0.1
2018-Feb-12 00:59N 49°17' W 123°05'0 0.0
2018-Feb-12 00:29N 49°17' W 123°05'0 0.0
2018-Feb-11 23:59N 49°17' W 123°05'0 0.1
2018-Feb-11 23:29N 49°17' W 123°05'0 0.0
2018-Feb-11 22:56N 49°17' W 123°05'0 0.0
2018-Feb-11 22:29N 49°17' W 123°05'0 0.1
2018-Feb-11 21:59N 49°17' W 123°05'0 0.1
2018-Feb-11 21:29N 49°17' W 123°05'0 0.1
2018-Feb-11 20:59N 49°17' W 123°05'0 0.0
2018-Feb-11 20:29N 49°17' W 123°05'0 0.1
2018-Feb-11 19:59N 49°17' W 123°05'0 0.0
2018-Feb-11 19:29N 49°17' W 123°05'0 0.0
2018-Feb-11 18:59N 49°17' W 123°05'0 0.0
2018-Feb-11 18:29N 49°17' W 123°05'0 0.1
2018-Feb-11 17:59N 49°17' W 123°05'0 0.1
2018-Feb-11 17:29N 49°17' W 123°05'0 0.1
2018-Feb-11 16:59N 49°17' W 123°05'0 0.1
2018-Feb-11 16:29N 49°17' W 123°05'0 0.1
2018-Feb-11 15:59N 49°17' W 123°05'0 0.1
2018-Feb-11 15:29N 49°17' W 123°05'0 0.0
2018-Feb-11 14:59N 49°17' W 123°05'0 0.1
2018-Feb-11 14:29N 49°17' W 123°05'0 0.1
2018-Feb-11 13:59N 49°17' W 123°05'0 0.1
2018-Feb-11 13:29N 49°17' W 123°05'0 0.1
2018-Feb-11 12:58N 49°17' W 123°05'0 0.1
2018-Feb-11 12:28N 49°17' W 123°05'0 0.1
2018-Feb-11 11:58N 49°17' W 123°05'0 0.0
2018-Feb-11 11:28N 49°17' W 123°05'0 0.0
2018-Feb-11 10:58N 49°17' W 123°05'0 0.0
2018-Feb-11 10:28N 49°17' W 123°05'0 0.0
2018-Feb-11 09:58N 49°17' W 123°05'0 0.0
2018-Feb-11 09:28N 49°17' W 123°05'0 0.1
2018-Feb-11 08:55N 49°17' W 123°05'0 0.0
2018-Feb-11 08:28N 49°17' W 123°05'0 0.1
2018-Feb-11 07:58N 49°17' W 123°05'0 0.0
2018-Feb-11 07:28N 49°17' W 123°05'0 0.0
2018-Feb-11 06:58N 49°17' W 123°05'0 0.0
2018-Feb-11 06:28N 49°17' W 123°05'0 0.1
2018-Feb-11 05:58N 49°17' W 123°05'0 0.1
2018-Feb-11 05:28N 49°17' W 123°05'0 0.0
2018-Feb-11 04:58N 49°17' W 123°05'0 0.0
2018-Feb-11 04:28N 49°17' W 123°05'0 0.0
2018-Feb-11 03:58N 49°17' W 123°05'0 0.0
2018-Feb-11 03:28N 49°17' W 123°05'0 0.0
2018-Feb-11 02:58N 49°17' W 123°05'0 0.0
2018-Feb-11 02:28N 49°17' W 123°05'0 0.1
2018-Feb-11 01:58N 49°17' W 123°05'0 0.1
2018-Feb-11 01:28N 49°17' W 123°05'0 0.1
2018-Feb-11 00:58N 49°17' W 123°05'0 0.1
2018-Feb-11 00:28N 49°17' W 123°05'0 0.0
2018-Feb-10 23:58N 49°17' W 123°05'0 0.0
2018-Feb-10 23:28N 49°17' W 123°05'0 0.0
2018-Feb-10 22:58N 49°17' W 123°05'1 1.7
2018-Feb-10 22:30N 49°18' W 123°06'1 2.4
2018-Feb-10 22:00N 49°19' W 123°07'0 0.0
2018-Feb-10 21:27N 49°19' W 123°07'0 0.0
2018-Feb-10 21:00N 49°19' W 123°07'0 0.0
2018-Feb-10 20:27N 49°19' W 123°07'0 0.0
2018-Feb-10 20:00N 49°19' W 123°07'0 0.0
2018-Feb-10 19:30N 49°19' W 123°07'0 0.0
2018-Feb-10 19:00N 49°19' W 123°07'0 0.0
2018-Feb-10 18:29N 49°19' W 123°07'0 0.0
2018-Feb-10 17:59N 49°19' W 123°07'0 0.0
2018-Feb-10 17:29N 49°19' W 123°07'0 0.0
2018-Feb-10 16:59N 49°19' W 123°07'0 0.0
2018-Feb-10 16:29N 49°19' W 123°07'0 0.0
2018-Feb-10 15:59N 49°19' W 123°07'0 0.0
2018-Feb-10 15:29N 49°19' W 123°07'0 0.0
2018-Feb-10 14:59N 49°19' W 123°07'0 0.0
2018-Feb-10 14:29N 49°19' W 123°07'0 0.0
2018-Feb-10 13:59N 49°19' W 123°07'0 0.0
2018-Feb-10 13:29N 49°19' W 123°07'0 0.0
2018-Feb-10 12:59N 49°19' W 123°07'0 0.0
2018-Feb-10 12:29N 49°19' W 123°07'0 0.0
2018-Feb-10 11:59N 49°19' W 123°07'0 0.0
2018-Feb-10 11:29N 49°19' W 123°07'0 0.0
2018-Feb-10 10:59N 49°19' W 123°07'0 0.0
2018-Feb-10 10:29N 49°19' W 123°07'0 0.0
2018-Feb-10 09:59N 49°19' W 123°07'0 0.0
2018-Feb-10 09:29N 49°19' W 123°07'0 0.0
2018-Feb-10 08:59N 49°19' W 123°07'0 0.0
2018-Feb-10 08:29N 49°19' W 123°07'0 0.0
2018-Feb-10 07:59N 49°19' W 123°07'0 0.0
2018-Feb-10 07:29N 49°19' W 123°07'0 0.0
2018-Feb-10 06:59N 49°19' W 123°07'0 0.0
2018-Feb-10 06:29N 49°19' W 123°07'0 0.0
2018-Feb-10 05:59N 49°19' W 123°07'0 0.0
2018-Feb-10 05:29N 49°19' W 123°07'0 0.0
2018-Feb-10 04:59N 49°19' W 123°07'0 0.0
2018-Feb-10 04:29N 49°19' W 123°07'0 0.0
2018-Feb-10 03:59N 49°19' W 123°07'0 0.0
2018-Feb-10 03:29N 49°19' W 123°07'0 0.0
2018-Feb-10 02:59N 49°19' W 123°07'0 0.0
2018-Feb-10 02:29N 49°19' W 123°07'0 0.0
2018-Feb-10 01:59N 49°19' W 123°07'0 0.0
2018-Feb-10 01:29N 49°19' W 123°07'0 0.0
2018-Feb-10 00:59N 49°19' W 123°07'0 0.0
2018-Feb-10 00:29N 49°19' W 123°07'0 0.0
2018-Feb-09 23:59N 49°19' W 123°07'0 0.0
2018-Feb-09 23:29N 49°19' W 123°07'0 0.0
2018-Feb-09 22:59N 49°19' W 123°07'0 0.0
2018-Feb-09 22:44N 49°19' W 123°07'0 0.0
2018-Feb-08 01:28N 49°19' W 123°07'0 0.0
2018-Feb-08 00:58N 49°19' W 123°07'0 0.0
2018-Feb-08 00:28N 49°19' W 123°07'0 0.0
2018-Feb-07 23:55N 49°19' W 123°07'0 0.0
2018-Feb-07 23:28N 49°19' W 123°07'0 0.0
2018-Feb-07 23:01N 49°19' W 123°07'0 0.0
2018-Feb-07 22:30N 49°19' W 123°07'0 0.0
2018-Feb-07 22:00N 49°19' W 123°07'0 0.0
2018-Feb-07 21:27N 49°19' W 123°07'  
Track history (hours):
 
Tides and Currents Weather Stations Pressure Air Temp Water Temp Dewpoint Dewpoint Depression Visibility Wind Speed Wind Dir Waves Ship Positions

Fermita

Last reported at 2018-Feb-17 17:13 UTC. Time now 2018-Feb-17 19:28 UTC.
Position N 49°11' W 123°54'.

Length 209 m; draft 7 m.

Type: Cargo ship. MMSI: 257398000.

Date/timePositionNaut miles runAvg speedWind from/ knotsBaromVisibWave heightAir tempDewpointWater temp
2018-Feb-17 17:13N 49°11' W 123°54'0 0.0
2018-Feb-17 07:42N 49°11' W 123°54'0 0.1
2018-Feb-17 07:12N 49°11' W 123°54'0 0.2
2018-Feb-17 07:00N 49°11' W 123°54'0 0.0
2018-Feb-17 06:30N 49°11' W 123°54'0 0.2
2018-Feb-17 05:58N 49°11' W 123°54'6 9.3
2018-Feb-17 05:19N 49°14' W 123°46'413.7
2018-Feb-17 05:00N 49°16' W 123°40'714.2
2018-Feb-17 04:30N 49°18' W 123°30'714.1
2018-Feb-17 04:00N 49°19' W 123°19'713.2
2018-Feb-17 03:30N 49°19' W 123°09'3 6.2
2018-Feb-17 03:00N 49°17' W 123°05'0 0.1
2018-Feb-17 02:29N 49°17' W 123°05'0 0.1
2018-Feb-17 01:59N 49°17' W 123°05'0 0.0
2018-Feb-17 01:29N 49°17' W 123°05'0 0.0
2018-Feb-17 00:59N 49°17' W 123°05'0 0.1
2018-Feb-17 00:29N 49°17' W 123°05'0 0.1
2018-Feb-16 23:59N 49°17' W 123°05'0 0.1
2018-Feb-16 23:29N 49°17' W 123°05'0 0.0
2018-Feb-16 22:59N 49°17' W 123°05'0 0.0
2018-Feb-16 22:29N 49°17' W 123°05'0 0.1
2018-Feb-16 21:59N 49°17' W 123°05'0 0.0
2018-Feb-16 21:29N 49°17' W 123°05'0 0.1
2018-Feb-16 20:59N 49°17' W 123°05'0 0.1
2018-Feb-16 20:29N 49°17' W 123°05'0 0.1
2018-Feb-16 19:59N 49°17' W 123°05'0 0.0
2018-Feb-16 19:29N 49°17' W 123°05'0 0.0
2018-Feb-16 18:59N 49°17' W 123°05'0 0.0
2018-Feb-16 18:29N 49°17' W 123°05'0 0.0
2018-Feb-16 17:59N 49°17' W 123°05'0 0.0
2018-Feb-16 17:29N 49°17' W 123°05'0 0.1
2018-Feb-16 16:59N 49°17' W 123°05'0 0.0
2018-Feb-16 16:29N 49°17' W 123°05'0 0.1
2018-Feb-16 15:59N 49°17' W 123°05'0 0.1
2018-Feb-16 15:29N 49°17' W 123°05'0 0.1
2018-Feb-16 14:59N 49°17' W 123°05'0 0.0
2018-Feb-16 14:29N 49°17' W 123°05'0 0.0
2018-Feb-16 13:59N 49°17' W 123°05'0 0.1
2018-Feb-16 13:29N 49°17' W 123°05'0 0.0
2018-Feb-16 12:59N 49°17' W 123°05'0 0.1
2018-Feb-16 12:29N 49°17' W 123°05'0 0.1
2018-Feb-16 11:59N 49°17' W 123°05'0 0.1
2018-Feb-16 11:29N 49°17' W 123°05'0 0.0
2018-Feb-16 10:59N 49°17' W 123°05'0 0.1
2018-Feb-16 10:29N 49°17' W 123°05'0 0.1
2018-Feb-16 09:59N 49°17' W 123°05'0 0.1
2018-Feb-16 09:29N 49°17' W 123°05'0 0.1
2018-Feb-16 08:59N 49°17' W 123°05'0 0.0
2018-Feb-16 08:29N 49°17' W 123°05'0 0.0
2018-Feb-16 07:59N 49°17' W 123°05'0 0.0
2018-Feb-16 07:29N 49°17' W 123°05'0 0.0
2018-Feb-16 06:59N 49°17' W 123°05'0 0.0
2018-Feb-16 06:29N 49°17' W 123°05'0 0.1
2018-Feb-16 05:59N 49°17' W 123°05'0 0.1
2018-Feb-16 05:29N 49°17' W 123°05'0 0.0
2018-Feb-16 04:59N 49°17' W 123°05'0 0.0
2018-Feb-16 04:29N 49°17' W 123°05'0 0.0
2018-Feb-16 03:59N 49°17' W 123°05'0 0.0
2018-Feb-16 03:29N 49°17' W 123°05'1 1.1
2018-Feb-16 03:01N 49°18' W 123°06'3 6.7
2018-Feb-16 02:30N 49°19' W 123°10'4 8.3
2018-Feb-16 02:01N 49°19' W 123°17'4 7.2
2018-Feb-16 01:30N 49°19' W 123°22'510.2
2018-Feb-16 01:00N 49°19' W 123°15'1 2.4
2018-Feb-16 00:30N 49°19' W 123°13'2 3.7
2018-Feb-16 00:01N 49°19' W 123°10'3 6.9
2018-Feb-15 23:31N 49°18' W 123°05'0 0.6
2018-Feb-15 22:59N 49°17' W 123°05'0 0.1
2018-Feb-15 22:29N 49°17' W 123°05'0 0.0
2018-Feb-15 21:59N 49°17' W 123°05'0 0.1
2018-Feb-15 21:29N 49°17' W 123°05'0 0.1
2018-Feb-15 20:59N 49°17' W 123°05'0 0.1
2018-Feb-15 20:29N 49°17' W 123°05'0 0.0
2018-Feb-15 19:59N 49°17' W 123°05'0 0.0
2018-Feb-15 19:29N 49°17' W 123°05'0 0.0
2018-Feb-15 18:59N 49°17' W 123°05'0 0.0
2018-Feb-15 18:29N 49°17' W 123°05'0 0.1
2018-Feb-15 17:58N 49°17' W 123°05'0 0.1
2018-Feb-15 17:28N 49°17' W 123°05'0 0.0
2018-Feb-15 16:58N 49°17' W 123°05'0 0.0
2018-Feb-15 16:28N 49°17' W 123°05'0 0.1
2018-Feb-15 15:58N 49°17' W 123°05'0 0.0
2018-Feb-15 15:28N 49°17' W 123°05'0 0.1
2018-Feb-15 14:58N 49°17' W 123°05'0 0.0
2018-Feb-15 14:28N 49°17' W 123°05'0 0.1
2018-Feb-15 13:58N 49°17' W 123°05'0 0.0
2018-Feb-15 13:28N 49°17' W 123°05'0 0.0
2018-Feb-15 12:58N 49°17' W 123°05'0 0.1
2018-Feb-15 12:28N 49°17' W 123°05'0 0.0
2018-Feb-15 11:58N 49°17' W 123°05'0 0.0
2018-Feb-15 11:28N 49°17' W 123°05'0 0.0
2018-Feb-15 10:58N 49°17' W 123°05'0 0.0
2018-Feb-15 10:28N 49°17' W 123°05'0 0.0
2018-Feb-15 09:58N 49°17' W 123°05'0 0.0
2018-Feb-15 09:28N 49°17' W 123°05'0 0.0
2018-Feb-15 08:58N 49°17' W 123°05'0 0.0
2018-Feb-15 08:28N 49°17' W 123°05'0 0.1
2018-Feb-15 07:58N 49°17' W 123°05'0 0.1
2018-Feb-15 07:28N 49°17' W 123°05'0 0.0
2018-Feb-15 06:58N 49°17' W 123°05'0 0.0
2018-Feb-15 06:25N 49°17' W 123°05'0 0.1
2018-Feb-15 05:58N 49°17' W 123°05'0 0.1
2018-Feb-15 05:28N 49°17' W 123°05'0 0.1
2018-Feb-15 04:58N 49°17' W 123°05'0 0.1
2018-Feb-15 04:28N 49°17' W 123°05'0 0.0
2018-Feb-15 03:58N 49°17' W 123°05'0 0.0
2018-Feb-15 03:28N 49°17' W 123°05'0 0.0
2018-Feb-15 02:58N 49°17' W 123°05'0 0.0
2018-Feb-15 02:28N 49°17' W 123°05'0 0.0
2018-Feb-15 01:58N 49°17' W 123°05'0 0.1
2018-Feb-15 01:28N 49°17' W 123°05'0 0.1
2018-Feb-15 00:58N 49°17' W 123°05'0 0.0
2018-Feb-15 00:28N 49°17' W 123°05'0 0.0
2018-Feb-14 23:58N 49°17' W 123°05'0 0.0
2018-Feb-14 23:28N 49°17' W 123°05'0 0.0
2018-Feb-14 22:58N 49°17' W 123°05'0 0.1
2018-Feb-14 22:28N 49°17' W 123°05'0 0.0
2018-Feb-14 21:58N 49°17' W 123°05'0 0.1
2018-Feb-14 21:28N 49°17' W 123°05'0 0.0
2018-Feb-14 20:58N 49°17' W 123°05'0 0.0
2018-Feb-14 20:28N 49°17' W 123°05'0 0.0
2018-Feb-14 19:58N 49°17' W 123°05'0 0.0
2018-Feb-14 19:28N 49°17' W 123°05'0 0.0
2018-Feb-14 18:58N 49°17' W 123°05'0 0.1
2018-Feb-14 18:28N 49°17' W 123°05'0 0.0
2018-Feb-14 17:58N 49°17' W 123°05'0 0.0
2018-Feb-14 17:28N 49°17' W 123°05'0 0.0
2018-Feb-14 16:58N 49°17' W 123°05'0 0.0
2018-Feb-14 16:28N 49°17' W 123°05'0 0.0
2018-Feb-14 15:58N 49°17' W 123°05'0 0.1
2018-Feb-14 15:28N 49°17' W 123°05'0 0.0
2018-Feb-14 14:58N 49°17' W 123°05'0 0.0
2018-Feb-14 14:28N 49°17' W 123°05'0 0.0
2018-Feb-14 13:58N 49°17' W 123°05'0 0.1
2018-Feb-14 13:28N 49°17' W 123°05'0 0.1
2018-Feb-14 12:58N 49°17' W 123°05'0 0.0
2018-Feb-14 12:28N 49°17' W 123°05'0 0.1
2018-Feb-14 11:58N 49°17' W 123°05'0 0.1
2018-Feb-14 11:28N 49°17' W 123°05'0 0.0
2018-Feb-14 10:58N 49°17' W 123°05'0 0.0
2018-Feb-14 10:28N 49°17' W 123°05'0 0.1
2018-Feb-14 09:58N 49°17' W 123°05'0 0.0
2018-Feb-14 09:31N 49°17' W 123°05'0 0.1
2018-Feb-14 09:01N 49°17' W 123°05'0 0.0
2018-Feb-14 08:30N 49°17' W 123°05'0 0.0
2018-Feb-14 08:00N 49°17' W 123°05'0 0.0
2018-Feb-14 07:30N 49°17' W 123°05'0 0.1
2018-Feb-14 07:00N 49°17' W 123°05'0 0.1
2018-Feb-14 06:30N 49°17' W 123°05'0 0.0
2018-Feb-14 06:00N 49°17' W 123°05'0 0.1
2018-Feb-14 05:30N 49°17' W 123°05'0 0.1
2018-Feb-14 05:00N 49°17' W 123°05'0 0.0
2018-Feb-14 04:30N 49°17' W 123°05'0 0.1
2018-Feb-14 04:00N 49°17' W 123°05'0 0.0
2018-Feb-14 03:30N 49°17' W 123°05'0 0.1
2018-Feb-14 03:00N 49°17' W 123°05'0 0.0
2018-Feb-14 02:30N 49°17' W 123°05'0 0.0
2018-Feb-14 02:00N 49°17' W 123°05'0 0.1
2018-Feb-14 01:30N 49°17' W 123°05'0 0.1
2018-Feb-14 01:00N 49°17' W 123°05'0 0.1
2018-Feb-14 00:30N 49°17' W 123°05'0 0.1
2018-Feb-14 00:00N 49°17' W 123°05'0 0.1
2018-Feb-13 23:30N 49°17' W 123°05'0 0.1
2018-Feb-13 23:00N 49°17' W 123°05'0 0.1
2018-Feb-13 22:30N 49°17' W 123°05'0 0.0
2018-Feb-13 22:00N 49°17' W 123°05'0 0.0
2018-Feb-13 21:30N 49°17' W 123°05'0 0.1
2018-Feb-13 21:00N 49°17' W 123°05'0 0.0
2018-Feb-13 20:30N 49°17' W 123°05'0 0.0
2018-Feb-13 20:00N 49°17' W 123°05'0 0.1
2018-Feb-13 19:30N 49°17' W 123°05'0 0.1
2018-Feb-13 19:00N 49°17' W 123°05'0 0.1
2018-Feb-13 18:30N 49°17' W 123°05'0 0.0
2018-Feb-13 18:00N 49°17' W 123°05'0 0.1
2018-Feb-13 17:27N 49°17' W 123°05'0 0.0
2018-Feb-13 17:00N 49°17' W 123°05'0 0.1
2018-Feb-13 16:30N 49°17' W 123°05'0 0.0
2018-Feb-13 15:57N 49°17' W 123°05'0 0.0
2018-Feb-13 15:30N 49°17' W 123°05'0 0.1
2018-Feb-13 15:00N 49°17' W 123°05'0 0.0
2018-Feb-13 14:30N 49°17' W 123°05'0 0.1
2018-Feb-13 13:58N 49°17' W 123°05'0 0.0
2018-Feb-13 13:30N 49°17' W 123°05'0 0.1
2018-Feb-13 13:00N 49°17' W 123°05'0 0.0
2018-Feb-13 12:30N 49°17' W 123°05'0 0.0
2018-Feb-13 12:00N 49°17' W 123°05'0 0.1
2018-Feb-13 11:30N 49°17' W 123°05'0 0.1
2018-Feb-13 11:00N 49°17' W 123°05'0 0.0
2018-Feb-13 10:30N 49°17' W 123°05'0 0.0
2018-Feb-13 10:00N 49°17' W 123°05'0 0.1
2018-Feb-13 09:30N 49°17' W 123°05'0 0.1
2018-Feb-13 09:00N 49°17' W 123°05'0 0.1
2018-Feb-13 08:30N 49°17' W 123°05'0 0.1
2018-Feb-13 08:00N 49°17' W 123°05'0 0.0
2018-Feb-13 07:30N 49°17' W 123°05'0 0.0
2018-Feb-13 07:00N 49°17' W 123°05'0 0.0
2018-Feb-13 06:30N 49°17' W 123°05'0 0.1
2018-Feb-13 05:57N 49°17' W 123°05'0 0.0
2018-Feb-13 05:27N 49°17' W 123°05'0 0.1
2018-Feb-13 05:00N 49°17' W 123°05'0 0.0
2018-Feb-13 04:30N 49°17' W 123°05'0 0.0
2018-Feb-13 04:00N 49°17' W 123°05'0 0.1
2018-Feb-13 03:30N 49°17' W 123°05'0 0.1
2018-Feb-13 02:57N 49°17' W 123°05'0 0.0
2018-Feb-13 02:30N 49°17' W 123°05'0 0.0
2018-Feb-13 02:00N 49°17' W 123°05'0 0.0
2018-Feb-13 01:30N 49°17' W 123°05'0 0.1
2018-Feb-13 01:00N 49°17' W 123°05'0 0.0
2018-Feb-13 00:27N 49°17' W 123°05'0 0.1
2018-Feb-13 00:00N 49°17' W 123°05'0 0.1
2018-Feb-12 23:27N 49°17' W 123°05'0 0.1
2018-Feb-12 22:56N 49°17' W 123°05'0 0.0
2018-Feb-12 22:29N 49°17' W 123°05'0 0.0
2018-Feb-12 21:59N 49°17' W 123°05'0 0.0
2018-Feb-12 21:26N 49°17' W 123°05'0 0.1
2018-Feb-12 20:59N 49°17' W 123°05'0 0.1
2018-Feb-12 20:29N 49°17' W 123°05'0 0.0
2018-Feb-12 19:59N 49°17' W 123°05'0 0.0
2018-Feb-12 19:29N 49°17' W 123°05'0 0.1
2018-Feb-12 18:59N 49°17' W 123°05'0 0.0
2018-Feb-12 18:29N 49°17' W 123°05'0 0.0
2018-Feb-12 17:59N 49°17' W 123°05'0 0.0
2018-Feb-12 17:29N 49°17' W 123°05'0 0.1
2018-Feb-12 16:59N 49°17' W 123°05'0 0.0
2018-Feb-12 16:29N 49°17' W 123°05'0 0.0
2018-Feb-12 15:59N 49°17' W 123°05'0 0.1
2018-Feb-12 15:29N 49°17' W 123°05'0 0.1
2018-Feb-12 14:59N 49°17' W 123°05'0 0.0
2018-Feb-12 14:29N 49°17' W 123°05'0 0.1
2018-Feb-12 13:59N 49°17' W 123°05'0 0.1
2018-Feb-12 13:29N 49°17' W 123°05'0 0.0
2018-Feb-12 12:59N 49°17' W 123°05'0 0.0
2018-Feb-12 12:29N 49°17' W 123°05'0 0.0
2018-Feb-12 11:59N 49°17' W 123°05'0 0.0
2018-Feb-12 11:29N 49°17' W 123°05'0 0.0
2018-Feb-12 10:59N 49°17' W 123°05'0 0.0
2018-Feb-12 10:29N 49°17' W 123°05'0 0.0
2018-Feb-12 09:59N 49°17' W 123°05'0 0.0
2018-Feb-12 09:29N 49°17' W 123°05'0 0.1
2018-Feb-12 08:59N 49°17' W 123°05'0 0.0
2018-Feb-12 08:29N 49°17' W 123°05'0 0.1
2018-Feb-12 07:59N 49°17' W 123°05'0 0.0
2018-Feb-12 07:29N 49°17' W 123°05'0 0.1
2018-Feb-12 06:59N 49°17' W 123°05'0 0.1
2018-Feb-12 06:29N 49°17' W 123°05'0 0.0
2018-Feb-12 05:59N 49°17' W 123°05'0 0.1
2018-Feb-12 05:29N 49°17' W 123°05'0 0.1
2018-Feb-12 04:59N 49°17' W 123°05'0 0.0
2018-Feb-12 04:29N 49°17' W 123°05'0 0.0
2018-Feb-12 03:59N 49°17' W 123°05'0 0.1
2018-Feb-12 03:29N 49°17' W 123°05'0 0.1
2018-Feb-12 02:59N 49°17' W 123°05'0 0.0
2018-Feb-12 02:29N 49°17' W 123°05'0 0.1
2018-Feb-12 01:59N 49°17' W 123°05'0 0.1
2018-Feb-12 01:29N 49°17' W 123°05'0 0.1
2018-Feb-12 00:59N 49°17' W 123°05'0 0.0
2018-Feb-12 00:29N 49°17' W 123°05'0 0.0
2018-Feb-11 23:59N 49°17' W 123°05'0 0.1
2018-Feb-11 23:29N 49°17' W 123°05'0 0.0
2018-Feb-11 22:56N 49°17' W 123°05'0 0.0
2018-Feb-11 22:29N 49°17' W 123°05'0 0.1
2018-Feb-11 21:59N 49°17' W 123°05'0 0.1
2018-Feb-11 21:29N 49°17' W 123°05'0 0.1
2018-Feb-11 20:59N 49°17' W 123°05'0 0.0
2018-Feb-11 20:29N 49°17' W 123°05'0 0.1
2018-Feb-11 19:59N 49°17' W 123°05'0 0.0
2018-Feb-11 19:29N 49°17' W 123°05'0 0.0
2018-Feb-11 18:59N 49°17' W 123°05'0 0.0
2018-Feb-11 18:29N 49°17' W 123°05'0 0.1
2018-Feb-11 17:59N 49°17' W 123°05'0 0.1
2018-Feb-11 17:29N 49°17' W 123°05'0 0.1
2018-Feb-11 16:59N 49°17' W 123°05'0 0.1
2018-Feb-11 16:29N 49°17' W 123°05'0 0.1
2018-Feb-11 15:59N 49°17' W 123°05'0 0.1
2018-Feb-11 15:29N 49°17' W 123°05'0 0.0
2018-Feb-11 14:59N 49°17' W 123°05'0 0.1
2018-Feb-11 14:29N 49°17' W 123°05'0 0.1
2018-Feb-11 13:59N 49°17' W 123°05'0 0.1
2018-Feb-11 13:29N 49°17' W 123°05'0 0.1
2018-Feb-11 12:58N 49°17' W 123°05'0 0.1
2018-Feb-11 12:28N 49°17' W 123°05'0 0.1
2018-Feb-11 11:58N 49°17' W 123°05'0 0.0
2018-Feb-11 11:28N 49°17' W 123°05'0 0.0
2018-Feb-11 10:58N 49°17' W 123°05'0 0.0
2018-Feb-11 10:28N 49°17' W 123°05'0 0.0
2018-Feb-11 09:58N 49°17' W 123°05'0 0.0
2018-Feb-11 09:28N 49°17' W 123°05'0 0.1
2018-Feb-11 08:55N 49°17' W 123°05'0 0.0
2018-Feb-11 08:28N 49°17' W 123°05'0 0.1
2018-Feb-11 07:58N 49°17' W 123°05'0 0.0
2018-Feb-11 07:28N 49°17' W 123°05'0 0.0
2018-Feb-11 06:58N 49°17' W 123°05'0 0.0
2018-Feb-11 06:28N 49°17' W 123°05'0 0.1
2018-Feb-11 05:58N 49°17' W 123°05'0 0.1
2018-Feb-11 05:28N 49°17' W 123°05'0 0.0
2018-Feb-11 04:58N 49°17' W 123°05'0 0.0
2018-Feb-11 04:28N 49°17' W 123°05'0 0.0
2018-Feb-11 03:58N 49°17' W 123°05'0 0.0
2018-Feb-11 03:28N 49°17' W 123°05'0 0.0
2018-Feb-11 02:58N 49°17' W 123°05'0 0.0
2018-Feb-11 02:28N 49°17' W 123°05'0 0.1
2018-Feb-11 01:58N 49°17' W 123°05'0 0.1
2018-Feb-11 01:28N 49°17' W 123°05'0 0.1
2018-Feb-11 00:58N 49°17' W 123°05'0 0.1
2018-Feb-11 00:28N 49°17' W 123°05'0 0.0
2018-Feb-10 23:58N 49°17' W 123°05'0 0.0
2018-Feb-10 23:28N 49°17' W 123°05'0 0.0
2018-Feb-10 22:58N 49°17' W 123°05'1 1.7
2018-Feb-10 22:30N 49°18' W 123°06'1 2.4
2018-Feb-10 22:00N 49°19' W 123°07'0 0.0
2018-Feb-10 21:27N 49°19' W 123°07'0 0.0
2018-Feb-10 21:00N 49°19' W 123°07'0 0.0
2018-Feb-10 20:27N 49°19' W 123°07'0 0.0
2018-Feb-10 20:00N 49°19' W 123°07'0 0.0
2018-Feb-10 19:30N 49°19' W 123°07'0 0.0
2018-Feb-10 19:00N 49°19' W 123°07'0 0.0
2018-Feb-10 18:29N 49°19' W 123°07'0 0.0
2018-Feb-10 17:59N 49°19' W 123°07'0 0.0
2018-Feb-10 17:29N 49°19' W 123°07'0 0.0
2018-Feb-10 16:59N 49°19' W 123°07'0 0.0
2018-Feb-10 16:29N 49°19' W 123°07'0 0.0
2018-Feb-10 15:59N 49°19' W 123°07'0 0.0
2018-Feb-10 15:29N 49°19' W 123°07'0 0.0
2018-Feb-10 14:59N 49°19' W 123°07'0 0.0
2018-Feb-10 14:29N 49°19' W 123°07'0 0.0
2018-Feb-10 13:59N 49°19' W 123°07'0 0.0
2018-Feb-10 13:29N 49°19' W 123°07'0 0.0
2018-Feb-10 12:59N 49°19' W 123°07'0 0.0
2018-Feb-10 12:29N 49°19' W 123°07'0 0.0
2018-Feb-10 11:59N 49°19' W 123°07'0 0.0
2018-Feb-10 11:29N 49°19' W 123°07'0 0.0
2018-Feb-10 10:59N 49°19' W 123°07'0 0.0
2018-Feb-10 10:29N 49°19' W 123°07'0 0.0
2018-Feb-10 09:59N 49°19' W 123°07'0 0.0
2018-Feb-10 09:29N 49°19' W 123°07'0 0.0
2018-Feb-10 08:59N 49°19' W 123°07'0 0.0
2018-Feb-10 08:29N 49°19' W 123°07'0 0.0
2018-Feb-10 07:59N 49°19' W 123°07'0 0.0
2018-Feb-10 07:29N 49°19' W 123°07'0 0.0
2018-Feb-10 06:59N 49°19' W 123°07'0 0.0
2018-Feb-10 06:29N 49°19' W 123°07'0 0.0
2018-Feb-10 05:59N 49°19' W 123°07'0 0.0
2018-Feb-10 05:29N 49°19' W 123°07'0 0.0
2018-Feb-10 04:59N 49°19' W 123°07'0 0.0
2018-Feb-10 04:29N 49°19' W 123°07'0 0.0
2018-Feb-10 03:59N 49°19' W 123°07'0 0.0
2018-Feb-10 03:29N 49°19' W 123°07'0 0.0
2018-Feb-10 02:59N 49°19' W 123°07'0 0.0
2018-Feb-10 02:29N 49°19' W 123°07'0 0.0
2018-Feb-10 01:59N 49°19' W 123°07'0 0.0
2018-Feb-10 01:29N 49°19' W 123°07'0 0.0
2018-Feb-10 00:59N 49°19' W 123°07'0 0.0
2018-Feb-10 00:29N 49°19' W 123°07'0 0.0
2018-Feb-09 23:59N 49°19' W 123°07'0 0.0
2018-Feb-09 23:29N 49°19' W 123°07'0 0.0
2018-Feb-09 22:59N 49°19' W 123°07'0 0.0
2018-Feb-09 22:44N 49°19' W 123°07'0 0.0
2018-Feb-08 01:28N 49°19' W 123°07'0 0.0
2018-Feb-08 00:58N 49°19' W 123°07'0 0.0
2018-Feb-08 00:28N 49°19' W 123°07'0 0.0
2018-Feb-07 23:55N 49°19' W 123°07'0 0.0
2018-Feb-07 23:28N 49°19' W 123°07'0 0.0
2018-Feb-07 23:01N 49°19' W 123°07'0 0.0
2018-Feb-07 22:30N 49°19' W 123°07'0 0.0
2018-Feb-07 22:00N 49°19' W 123°07'0 0.0
2018-Feb-07 21:27N 49°19' W 123°07'  

Dump ship's entire track history